sensor_id;sensor_type;location;lat;lon;timestamp;P1;durP1;ratioP1;P2;durP2;ratioP2
34242;SDS011;20504;43.214;27.920;2023-04-06T00:01:36;20.08;;;13.02;;
34242;SDS011;20504;43.214;27.920;2023-04-06T00:04:02;18.15;;;12.25;;
34242;SDS011;20504;43.214;27.920;2023-04-06T00:06:28;19.70;;;13.37;;
34242;SDS011;20504;43.214;27.920;2023-04-06T00:08:53;20.33;;;12.80;;
34242;SDS011;20504;43.214;27.920;2023-04-06T00:11:20;18.55;;;12.60;;
34242;SDS011;20504;43.214;27.920;2023-04-06T00:13:45;15.63;;;9.37;;
34242;SDS011;20504;43.214;27.920;2023-04-06T00:16:11;20.17;;;12.30;;
34242;SDS011;20504;43.214;27.920;2023-04-06T00:18:36;17.33;;;12.60;;
34242;SDS011;20504;43.214;27.920;2023-04-06T00:21:02;17.20;;;9.77;;
34242;SDS011;20504;43.214;27.920;2023-04-06T00:23:28;18.98;;;12.93;;
34242;SDS011;20504;43.214;27.920;2023-04-06T00:25:54;18.27;;;13.10;;
34242;SDS011;20504;43.214;27.920;2023-04-06T00:28:20;18.60;;;12.55;;
34242;SDS011;20504;43.214;27.920;2023-04-06T00:30:50;18.05;;;12.27;;
34242;SDS011;20504;43.214;27.920;2023-04-06T00:33:17;19.90;;;14.07;;
34242;SDS011;20504;43.214;27.920;2023-04-06T00:35:43;21.17;;;13.98;;
34242;SDS011;20504;43.214;27.920;2023-04-06T00:38:09;22.80;;;13.93;;
34242;SDS011;20504;43.214;27.920;2023-04-06T00:40:35;22.13;;;14.23;;
34242;SDS011;20504;43.214;27.920;2023-04-06T00:43:00;23.03;;;15.33;;
34242;SDS011;20504;43.214;27.920;2023-04-06T00:45:26;22.33;;;14.83;;
34242;SDS011;20504;43.214;27.920;2023-04-06T00:47:51;23.87;;;13.97;;
34242;SDS011;20504;43.214;27.920;2023-04-06T00:50:17;14.77;;;11.03;;
34242;SDS011;20504;43.214;27.920;2023-04-06T00:52:42;19.50;;;14.53;;
34242;SDS011;20504;43.214;27.920;2023-04-06T00:55:08;19.33;;;13.30;;
34242;SDS011;20504;43.214;27.920;2023-04-06T00:57:34;19.35;;;13.30;;
34242;SDS011;20504;43.214;27.920;2023-04-06T01:00:00;20.60;;;12.90;;
34242;SDS011;20504;43.214;27.920;2023-04-06T01:02:26;12.50;;;8.87;;
34242;SDS011;20504;43.214;27.920;2023-04-06T01:04:52;16.20;;;11.33;;
34242;SDS011;20504;43.214;27.920;2023-04-06T01:07:19;16.83;;;11.32;;
34242;SDS011;20504;43.214;27.920;2023-04-06T01:09:45;17.03;;;10.77;;
34242;SDS011;20504;43.214;27.920;2023-04-06T01:12:10;12.73;;;8.47;;
34242;SDS011;20504;43.214;27.920;2023-04-06T01:14:36;14.83;;;10.53;;
34242;SDS011;20504;43.214;27.920;2023-04-06T01:17:01;13.37;;;10.50;;
34242;SDS011;20504;43.214;27.920;2023-04-06T01:19:27;9.57;;;7.63;;
34242;SDS011;20504;43.214;27.920;2023-04-06T01:21:53;15.50;;;10.87;;
34242;SDS011;20504;43.214;27.920;2023-04-06T01:24:19;14.60;;;9.87;;
34242;SDS011;20504;43.214;27.920;2023-04-06T01:26:45;12.10;;;9.15;;
34242;SDS011;20504;43.214;27.920;2023-04-06T01:29:10;13.83;;;9.97;;
34242;SDS011;20504;43.214;27.920;2023-04-06T01:31:36;13.50;;;9.70;;
34242;SDS011;20504;43.214;27.920;2023-04-06T01:34:02;10.90;;;9.55;;
34242;SDS011;20504;43.214;27.920;2023-04-06T01:36:28;12.23;;;9.33;;
34242;SDS011;20504;43.214;27.920;2023-04-06T01:38:53;12.65;;;9.75;;
34242;SDS011;20504;43.214;27.920;2023-04-06T01:41:19;15.00;;;9.73;;
34242;SDS011;20504;43.214;27.920;2023-04-06T01:43:45;13.83;;;10.03;;
34242;SDS011;20504;43.214;27.920;2023-04-06T01:46:12;14.85;;;10.55;;
34242;SDS011;20504;43.214;27.920;2023-04-06T01:48:37;11.83;;;9.77;;
34242;SDS011;20504;43.214;27.920;2023-04-06T01:51:03;12.97;;;10.63;;
34242;SDS011;20504;43.214;27.920;2023-04-06T01:53:29;14.80;;;10.33;;
34242;SDS011;20504;43.214;27.920;2023-04-06T01:55:54;14.57;;;10.53;;
34242;SDS011;20504;43.214;27.920;2023-04-06T01:58:20;13.80;;;10.33;;
34242;SDS011;20504;43.214;27.920;2023-04-06T02:00:45;14.13;;;10.23;;
34242;SDS011;20504;43.214;27.920;2023-04-06T02:03:11;15.33;;;10.67;;
34242;SDS011;20504;43.214;27.920;2023-04-06T02:05:36;13.83;;;10.07;;
34242;SDS011;20504;43.214;27.920;2023-04-06T02:08:06;13.20;;;10.18;;
34242;SDS011;20504;43.214;27.920;2023-04-06T02:10:32;12.20;;;9.82;;
34242;SDS011;20504;43.214;27.920;2023-04-06T02:15:24;14.77;;;10.43;;
34242;SDS011;20504;43.214;27.920;2023-04-06T02:17:50;13.33;;;9.97;;
34242;SDS011;20504;43.214;27.920;2023-04-06T02:20:16;13.77;;;10.95;;
34242;SDS011;20504;43.214;27.920;2023-04-06T02:22:42;14.33;;;10.50;;
34242;SDS011;20504;43.214;27.920;2023-04-06T02:25:07;15.47;;;10.87;;
34242;SDS011;20504;43.214;27.920;2023-04-06T02:27:33;18.67;;;10.90;;
34242;SDS011;20504;43.214;27.920;2023-04-06T02:29:59;14.87;;;11.13;;
34242;SDS011;20504;43.214;27.920;2023-04-06T02:32:25;13.43;;;10.03;;
34242;SDS011;20504;43.214;27.920;2023-04-06T02:34:51;12.85;;;9.93;;
34242;SDS011;20504;43.214;27.920;2023-04-06T02:37:17;13.77;;;10.23;;
34242;SDS011;20504;43.214;27.920;2023-04-06T02:39:42;13.60;;;10.27;;
34242;SDS011;20504;43.214;27.920;2023-04-06T02:42:08;10.80;;;7.80;;
34242;SDS011;20504;43.214;27.920;2023-04-06T02:44:34;14.27;;;10.47;;
34242;SDS011;20504;43.214;27.920;2023-04-06T02:46:59;14.05;;;10.32;;
34242;SDS011;20504;43.214;27.920;2023-04-06T02:49:25;14.50;;;10.37;;
34242;SDS011;20504;43.214;27.920;2023-04-06T02:51:51;15.18;;;11.35;;
34242;SDS011;20504;43.214;27.920;2023-04-06T02:54:16;13.73;;;10.70;;
34242;SDS011;20504;43.214;27.920;2023-04-06T02:56:42;13.10;;;10.20;;
34242;SDS011;20504;43.214;27.920;2023-04-06T02:59:08;13.02;;;9.77;;
34242;SDS011;20504;43.214;27.920;2023-04-06T03:01:34;17.07;;;10.97;;
34242;SDS011;20504;43.214;27.920;2023-04-06T03:03:59;15.57;;;11.00;;
34242;SDS011;20504;43.214;27.920;2023-04-06T03:06:25;15.57;;;12.00;;
34242;SDS011;20504;43.214;27.920;2023-04-06T03:08:51;15.73;;;11.43;;
34242;SDS011;20504;43.214;27.920;2023-04-06T03:11:16;16.27;;;12.47;;
34242;SDS011;20504;43.214;27.920;2023-04-06T03:13:42;16.77;;;12.53;;
34242;SDS011;20504;43.214;27.920;2023-04-06T03:16:07;18.53;;;14.20;;
34242;SDS011;20504;43.214;27.920;2023-04-06T03:18:34;19.60;;;13.73;;
34242;SDS011;20504;43.214;27.920;2023-04-06T03:21:00;21.53;;;14.23;;
34242;SDS011;20504;43.214;27.920;2023-04-06T03:23:26;20.58;;;14.57;;
34242;SDS011;20504;43.214;27.920;2023-04-06T03:25:51;26.97;;;18.90;;
34242;SDS011;20504;43.214;27.920;2023-04-06T03:28:16;27.37;;;17.40;;
34242;SDS011;20504;43.214;27.920;2023-04-06T03:30:42;31.57;;;22.07;;
34242;SDS011;20504;43.214;27.920;2023-04-06T03:33:08;34.97;;;25.38;;
34242;SDS011;20504;43.214;27.920;2023-04-06T03:35:33;29.93;;;19.87;;
34242;SDS011;20504;43.214;27.920;2023-04-06T03:37:59;24.07;;;17.40;;
34242;SDS011;20504;43.214;27.920;2023-04-06T03:40:24;24.00;;;14.60;;
34242;SDS011;20504;43.214;27.920;2023-04-06T03:42:50;16.47;;;12.30;;
34242;SDS011;20504;43.214;27.920;2023-04-06T03:45:15;21.27;;;15.73;;
34242;SDS011;20504;43.214;27.920;2023-04-06T03:47:41;21.17;;;15.47;;
34242;SDS011;20504;43.214;27.920;2023-04-06T03:50:07;24.40;;;15.87;;
34242;SDS011;20504;43.214;27.920;2023-04-06T03:52:32;22.05;;;15.90;;
34242;SDS011;20504;43.214;27.920;2023-04-06T03:54:59;24.73;;;16.43;;
34242;SDS011;20504;43.214;27.920;2023-04-06T03:57:25;27.50;;;18.52;;
34242;SDS011;20504;43.214;27.920;2023-04-06T03:59:50;31.00;;;19.83;;
34242;SDS011;20504;43.214;27.920;2023-04-06T04:02:16;30.40;;;20.00;;
34242;SDS011;20504;43.214;27.920;2023-04-06T04:04:41;30.80;;;19.73;;
34242;SDS011;20504;43.214;27.920;2023-04-06T04:07:07;28.42;;;20.27;;
34242;SDS011;20504;43.214;27.920;2023-04-06T04:09:32;29.77;;;20.07;;
34242;SDS011;20504;43.214;27.920;2023-04-06T04:11:58;23.07;;;14.63;;
34242;SDS011;20504;43.214;27.920;2023-04-06T04:14:23;31.07;;;19.50;;
34242;SDS011;20504;43.214;27.920;2023-04-06T04:16:51;32.10;;;19.42;;
34242;SDS011;20504;43.214;27.920;2023-04-06T04:19:17;29.10;;;19.23;;
34242;SDS011;20504;43.214;27.920;2023-04-06T04:21:43;32.57;;;19.97;;
34242;SDS011;20504;43.214;27.920;2023-04-06T04:24:10;27.42;;;19.33;;
34242;SDS011;20504;43.214;27.920;2023-04-06T04:26:35;17.77;;;12.53;;
34242;SDS011;20504;43.214;27.920;2023-04-06T04:29:01;25.67;;;16.77;;
34242;SDS011;20504;43.214;27.920;2023-04-06T04:31:26;27.17;;;15.73;;
34242;SDS011;20504;43.214;27.920;2023-04-06T04:33:52;22.67;;;15.63;;
34242;SDS011;20504;43.214;27.920;2023-04-06T04:36:17;25.57;;;15.60;;
34242;SDS011;20504;43.214;27.920;2023-04-06T04:38:43;25.17;;;14.73;;
34242;SDS011;20504;43.214;27.920;2023-04-06T04:41:08;24.63;;;16.57;;
34242;SDS011;20504;43.214;27.920;2023-04-06T04:43:34;25.13;;;16.07;;
34242;SDS011;20504;43.214;27.920;2023-04-06T04:45:59;23.97;;;15.77;;
34242;SDS011;20504;43.214;27.920;2023-04-06T04:48:25;26.00;;;15.67;;
34242;SDS011;20504;43.214;27.920;2023-04-06T04:50:51;25.90;;;16.60;;
34242;SDS011;20504;43.214;27.920;2023-04-06T04:53:16;29.10;;;16.37;;
34242;SDS011;20504;43.214;27.920;2023-04-06T04:55:42;18.60;;;12.37;;
34242;SDS011;20504;43.214;27.920;2023-04-06T04:58:07;26.37;;;16.87;;
34242;SDS011;20504;43.214;27.920;2023-04-06T05:00:34;22.75;;;15.05;;
34242;SDS011;20504;43.214;27.920;2023-04-06T05:02:59;24.80;;;16.07;;
34242;SDS011;20504;43.214;27.920;2023-04-06T05:05:25;24.70;;;16.87;;
34242;SDS011;20504;43.214;27.920;2023-04-06T05:07:50;25.27;;;14.13;;
34242;SDS011;20504;43.214;27.920;2023-04-06T05:10:16;21.73;;;15.77;;
34242;SDS011;20504;43.214;27.920;2023-04-06T05:12:42;22.23;;;16.17;;
34242;SDS011;20504;43.214;27.920;2023-04-06T05:15:07;25.23;;;16.80;;
34242;SDS011;20504;43.214;27.920;2023-04-06T05:17:33;24.63;;;16.65;;
34242;SDS011;20504;43.214;27.920;2023-04-06T05:19:59;32.27;;;18.13;;
34242;SDS011;20504;43.214;27.920;2023-04-06T05:22:25;20.00;;;12.73;;
34242;SDS011;20504;43.214;27.920;2023-04-06T05:24:51;27.75;;;17.02;;
34242;SDS011;20504;43.214;27.920;2023-04-06T05:27:16;23.53;;;17.73;;
34242;SDS011;20504;43.214;27.920;2023-04-06T05:29:42;18.50;;;13.70;;
34242;SDS011;20504;43.214;27.920;2023-04-06T05:32:08;26.10;;;17.20;;
34242;SDS011;20504;43.214;27.920;2023-04-06T05:34:35;27.88;;;16.73;;
34242;SDS011;20504;43.214;27.920;2023-04-06T05:37:00;23.53;;;16.43;;
34242;SDS011;20504;43.214;27.920;2023-04-06T05:39:26;29.27;;;17.10;;
34242;SDS011;20504;43.214;27.920;2023-04-06T05:41:51;23.13;;;15.10;;
34242;SDS011;20504;43.214;27.920;2023-04-06T05:44:17;20.03;;;12.33;;
34242;SDS011;20504;43.214;27.920;2023-04-06T05:46:42;23.17;;;15.67;;
34242;SDS011;20504;43.214;27.920;2023-04-06T05:49:08;20.73;;;15.30;;
34242;SDS011;20504;43.214;27.920;2023-04-06T05:51:33;20.53;;;14.87;;
34242;SDS011;20504;43.214;27.920;2023-04-06T05:53:59;22.80;;;14.65;;
34242;SDS011;20504;43.214;27.920;2023-04-06T05:56:25;24.57;;;15.60;;
34242;SDS011;20504;43.214;27.920;2023-04-06T05:58:51;17.98;;;11.27;;
34242;SDS011;20504;43.214;27.920;2023-04-06T06:01:16;23.50;;;16.20;;
34242;SDS011;20504;43.214;27.920;2023-04-06T06:03:42;21.60;;;15.97;;
34242;SDS011;20504;43.214;27.920;2023-04-06T06:06:07;27.87;;;17.20;;
34242;SDS011;20504;43.214;27.920;2023-04-06T06:08:33;28.77;;;16.40;;
34242;SDS011;20504;43.214;27.920;2023-04-06T06:10:59;30.13;;;16.73;;
34242;SDS011;20504;43.214;27.920;2023-04-06T06:13:25;27.60;;;19.80;;
34242;SDS011;20504;43.214;27.920;2023-04-06T06:15:50;28.20;;;16.43;;
34242;SDS011;20504;43.214;27.920;2023-04-06T06:18:16;27.20;;;17.77;;
34242;SDS011;20504;43.214;27.920;2023-04-06T06:20:41;23.43;;;16.23;;
34242;SDS011;20504;43.214;27.920;2023-04-06T06:23:07;25.73;;;16.73;;
34242;SDS011;20504;43.214;27.920;2023-04-06T06:25:32;31.57;;;18.17;;
34242;SDS011;20504;43.214;27.920;2023-04-06T06:27:58;29.50;;;16.07;;
34242;SDS011;20504;43.214;27.920;2023-04-06T06:30:24;32.97;;;18.13;;
34242;SDS011;20504;43.214;27.920;2023-04-06T06:32:50;28.73;;;18.87;;
34242;SDS011;20504;43.214;27.920;2023-04-06T06:35:16;25.27;;;16.05;;
34242;SDS011;20504;43.214;27.920;2023-04-06T06:37:42;26.02;;;15.07;;
34242;SDS011;20504;43.214;27.920;2023-04-06T06:40:08;35.73;;;19.17;;
34242;SDS011;20504;43.214;27.920;2023-04-06T06:42:34;26.00;;;17.50;;
34242;SDS011;20504;43.214;27.920;2023-04-06T06:45:00;27.17;;;16.40;;
34242;SDS011;20504;43.214;27.920;2023-04-06T06:47:25;27.50;;;15.00;;
34242;SDS011;20504;43.214;27.920;2023-04-06T06:49:51;21.23;;;13.93;;
34242;SDS011;20504;43.214;27.920;2023-04-06T06:52:17;21.67;;;14.47;;
34242;SDS011;20504;43.214;27.920;2023-04-06T06:54:42;27.60;;;15.00;;
34242;SDS011;20504;43.214;27.920;2023-04-06T06:57:08;23.33;;;15.13;;
34242;SDS011;20504;43.214;27.920;2023-04-06T06:59:34;20.33;;;14.03;;
34242;SDS011;20504;43.214;27.920;2023-04-06T07:01:59;27.23;;;14.43;;
34242;SDS011;20504;43.214;27.920;2023-04-06T07:04:25;22.43;;;14.13;;
34242;SDS011;20504;43.214;27.920;2023-04-06T07:06:51;21.63;;;15.13;;
34242;SDS011;20504;43.214;27.920;2023-04-06T07:09:17;22.05;;;15.88;;
34242;SDS011;20504;43.214;27.920;2023-04-06T07:11:43;20.10;;;14.13;;
34242;SDS011;20504;43.214;27.920;2023-04-06T07:14:08;21.73;;;13.87;;
34242;SDS011;20504;43.214;27.920;2023-04-06T07:16:34;19.30;;;13.47;;
34242;SDS011;20504;43.214;27.920;2023-04-06T07:19:00;23.60;;;13.50;;
34242;SDS011;20504;43.214;27.920;2023-04-06T07:21:25;20.53;;;14.63;;
34242;SDS011;20504;43.214;27.920;2023-04-06T07:23:51;17.30;;;11.20;;
34242;SDS011;20504;43.214;27.920;2023-04-06T07:26:17;22.27;;;13.20;;
34242;SDS011;20504;43.214;27.920;2023-04-06T07:28:42;20.73;;;13.17;;
34242;SDS011;20504;43.214;27.920;2023-04-06T07:31:08;20.73;;;13.93;;
34242;SDS011;20504;43.214;27.920;2023-04-06T07:33:34;19.67;;;13.50;;
34242;SDS011;20504;43.214;27.920;2023-04-06T07:35:59;21.47;;;14.03;;
34242;SDS011;20504;43.214;27.920;2023-04-06T07:38:25;20.30;;;13.10;;
34242;SDS011;20504;43.214;27.920;2023-04-06T07:40:50;19.57;;;12.27;;
34242;SDS011;20504;43.214;27.920;2023-04-06T07:43:16;18.47;;;12.60;;
34242;SDS011;20504;43.214;27.920;2023-04-06T07:45:42;17.90;;;12.67;;
34242;SDS011;20504;43.214;27.920;2023-04-06T07:48:07;20.03;;;13.83;;
34242;SDS011;20504;43.214;27.920;2023-04-06T07:50:32;12.30;;;9.37;;
34242;SDS011;20504;43.214;27.920;2023-04-06T07:52:58;20.77;;;12.23;;
34242;SDS011;20504;43.214;27.920;2023-04-06T07:57:51;20.92;;;12.85;;
34242;SDS011;20504;43.214;27.920;2023-04-06T08:02:42;19.17;;;12.68;;
34242;SDS011;20504;43.214;27.920;2023-04-06T08:05:08;17.03;;;12.40;;
34242;SDS011;20504;43.214;27.920;2023-04-06T08:07:34;25.05;;;13.63;;
34242;SDS011;20504;43.214;27.920;2023-04-06T08:10:01;20.58;;;14.48;;
34242;SDS011;20504;43.214;27.920;2023-04-06T08:12:26;25.77;;;12.93;;
34242;SDS011;20504;43.214;27.920;2023-04-06T08:14:52;16.17;;;11.73;;
34242;SDS011;20504;43.214;27.920;2023-04-06T08:17:17;16.60;;;11.07;;
34242;SDS011;20504;43.214;27.920;2023-04-06T08:19:44;16.20;;;11.15;;
34242;SDS011;20504;43.214;27.920;2023-04-06T08:22:09;15.60;;;10.73;;
34242;SDS011;20504;43.214;27.920;2023-04-06T08:24:35;12.20;;;9.70;;
34242;SDS011;20504;43.214;27.920;2023-04-06T08:27:01;12.67;;;8.40;;
34242;SDS011;20504;43.214;27.920;2023-04-06T08:29:26;13.27;;;10.80;;
34242;SDS011;20504;43.214;27.920;2023-04-06T08:31:52;13.70;;;11.00;;
34242;SDS011;20504;43.214;27.920;2023-04-06T08:34:17;11.20;;;9.97;;
34242;SDS011;20504;43.214;27.920;2023-04-06T08:36:43;17.67;;;10.23;;
34242;SDS011;20504;43.214;27.920;2023-04-06T08:39:10;15.07;;;10.48;;
34242;SDS011;20504;43.214;27.920;2023-04-06T08:41:36;13.73;;;10.47;;
34242;SDS011;20504;43.214;27.920;2023-04-06T08:44:02;27.67;;;10.53;;
34242;SDS011;20504;43.214;27.920;2023-04-06T08:46:28;13.07;;;9.48;;
34242;SDS011;20504;43.214;27.920;2023-04-06T08:48:59;14.85;;;10.18;;
34242;SDS011;20504;43.214;27.920;2023-04-06T08:51:26;17.17;;;8.82;;
34242;SDS011;20504;43.214;27.920;2023-04-06T08:53:56;13.82;;;9.50;;
34242;SDS011;20504;43.214;27.920;2023-04-06T08:56:23;14.07;;;9.07;;
34242;SDS011;20504;43.214;27.920;2023-04-06T08:58:53;14.73;;;9.80;;
34242;SDS011;20504;43.214;27.920;2023-04-06T09:03:50;14.30;;;8.98;;
34242;SDS011;20504;43.214;27.920;2023-04-06T09:06:18;10.60;;;8.15;;
34242;SDS011;20504;43.214;27.920;2023-04-06T09:08:43;12.90;;;8.20;;
34242;SDS011;20504;43.214;27.920;2023-04-06T09:11:10;15.83;;;9.10;;
34242;SDS011;20504;43.214;27.920;2023-04-06T09:13:49;11.57;;;8.98;;
34242;SDS011;20504;43.214;27.920;2023-04-06T09:16:16;13.45;;;8.73;;
34242;SDS011;20504;43.214;27.920;2023-04-06T09:18:43;14.48;;;8.57;;
34242;SDS011;20504;43.214;27.920;2023-04-06T09:21:09;11.55;;;8.07;;
34242;SDS011;20504;43.214;27.920;2023-04-06T09:23:35;10.15;;;8.57;;
34242;SDS011;20504;43.214;27.920;2023-04-06T09:26:11;14.13;;;10.07;;
34242;SDS011;20504;43.214;27.920;2023-04-06T09:28:44;13.65;;;9.32;;
34242;SDS011;20504;43.214;27.920;2023-04-06T09:31:16;11.23;;;9.02;;
34242;SDS011;20504;43.214;27.920;2023-04-06T09:33:47;14.10;;;8.48;;
34242;SDS011;20504;43.214;27.920;2023-04-06T09:36:13;11.43;;;8.63;;
34242;SDS011;20504;43.214;27.920;2023-04-06T09:38:56;21.23;;;10.02;;
34242;SDS011;20504;43.214;27.920;2023-04-06T09:41:27;17.67;;;10.88;;
34242;SDS011;20504;43.214;27.920;2023-04-06T09:44:05;16.48;;;11.27;;
34242;SDS011;20504;43.214;27.920;2023-04-06T09:46:36;15.38;;;10.38;;
34242;SDS011;20504;43.214;27.920;2023-04-06T09:49:05;15.80;;;10.45;;
34242;SDS011;20504;43.214;27.920;2023-04-06T09:51:45;18.65;;;10.48;;
34242;SDS011;20504;43.214;27.920;2023-04-06T09:54:18;16.33;;;10.02;;
34242;SDS011;20504;43.214;27.920;2023-04-06T09:56:46;12.70;;;10.02;;
34242;SDS011;20504;43.214;27.920;2023-04-06T10:02:21;12.20;;;10.20;;
34242;SDS011;20504;43.214;27.920;2023-04-06T10:07:59;14.50;;;10.63;;
34242;SDS011;20504;43.214;27.920;2023-04-06T10:10:29;13.48;;;10.20;;
34242;SDS011;20504;43.214;27.920;2023-04-06T10:12:55;14.00;;;9.87;;
34242;SDS011;20504;43.214;27.920;2023-04-06T10:15:21;15.52;;;11.13;;
34242;SDS011;20504;43.214;27.920;2023-04-06T10:17:47;14.93;;;10.03;;
34242;SDS011;20504;43.214;27.920;2023-04-06T10:25:31;13.07;;;10.68;;
34242;SDS011;20504;43.214;27.920;2023-04-06T10:28:20;13.38;;;9.95;;
34242;SDS011;20504;43.214;27.920;2023-04-06T10:30:45;13.53;;;10.00;;
34242;SDS011;20504;43.214;27.920;2023-04-06T10:33:17;12.17;;;9.70;;
34242;SDS011;20504;43.214;27.920;2023-04-06T10:35:45;17.98;;;11.57;;
34242;SDS011;20504;43.214;27.920;2023-04-06T10:38:11;14.70;;;10.27;;
34242;SDS011;20504;43.214;27.920;2023-04-06T10:40:39;13.45;;;10.23;;
34242;SDS011;20504;43.214;27.920;2023-04-06T10:43:12;16.42;;;10.68;;
34242;SDS011;20504;43.214;27.920;2023-04-06T10:45:42;15.90;;;10.93;;
34242;SDS011;20504;43.214;27.920;2023-04-06T10:48:16;17.52;;;11.23;;
34242;SDS011;20504;43.214;27.920;2023-04-06T10:50:49;15.15;;;10.82;;
34242;SDS011;20504;43.214;27.920;2023-04-06T10:53:24;15.30;;;12.02;;
34242;SDS011;20504;43.214;27.920;2023-04-06T10:55:51;17.63;;;11.80;;
34242;SDS011;20504;43.214;27.920;2023-04-06T10:58:18;13.32;;;9.73;;
34242;SDS011;20504;43.214;27.920;2023-04-06T11:00:47;12.73;;;10.10;;
34242;SDS011;20504;43.214;27.920;2023-04-06T11:03:13;15.00;;;11.00;;
34242;SDS011;20504;43.214;27.920;2023-04-06T11:05:46;13.25;;;10.00;;
34242;SDS011;20504;43.214;27.920;2023-04-06T11:08:29;13.60;;;10.38;;
34242;SDS011;20504;43.214;27.920;2023-04-06T11:16:03;18.70;;;11.48;;
34242;SDS011;20504;43.214;27.920;2023-04-06T11:18:29;14.93;;;10.52;;
34242;SDS011;20504;43.214;27.920;2023-04-06T11:20:55;12.82;;;9.48;;
34242;SDS011;20504;43.214;27.920;2023-04-06T11:23:24;12.97;;;10.17;;
34242;SDS011;20504;43.214;27.920;2023-04-06T11:25:53;11.60;;;9.25;;
34242;SDS011;20504;43.214;27.920;2023-04-06T11:28:19;14.73;;;9.40;;
34242;SDS011;20504;43.214;27.920;2023-04-06T11:30:45;10.55;;;9.43;;
34242;SDS011;20504;43.214;27.920;2023-04-06T11:33:19;16.23;;;9.73;;
34242;SDS011;20504;43.214;27.920;2023-04-06T11:35:47;14.68;;;9.57;;
34242;SDS011;20504;43.214;27.920;2023-04-06T11:38:13;12.90;;;10.35;;
34242;SDS011;20504;43.214;27.920;2023-04-06T11:40:39;13.77;;;9.93;;
34242;SDS011;20504;43.214;27.920;2023-04-06T11:43:04;12.37;;;10.40;;
34242;SDS011;20504;43.214;27.920;2023-04-06T11:45:41;11.95;;;9.43;;
34242;SDS011;20504;43.214;27.920;2023-04-06T11:48:17;12.10;;;9.63;;
34242;SDS011;20504;43.214;27.920;2023-04-06T11:50:45;12.82;;;9.65;;
34242;SDS011;20504;43.214;27.920;2023-04-06T11:53:12;11.10;;;9.30;;
34242;SDS011;20504;43.214;27.920;2023-04-06T11:55:38;11.97;;;8.47;;
34242;SDS011;20504;43.214;27.920;2023-04-06T11:58:04;10.23;;;8.50;;
34242;SDS011;20504;43.214;27.920;2023-04-06T12:00:29;11.93;;;9.73;;
34242;SDS011;20504;43.214;27.920;2023-04-06T12:02:59;11.13;;;8.75;;
34242;SDS011;20504;43.214;27.920;2023-04-06T12:05:25;12.65;;;8.52;;
34242;SDS011;20504;43.214;27.920;2023-04-06T12:07:51;16.10;;;9.10;;
34242;SDS011;20504;43.214;27.920;2023-04-06T12:10:17;11.50;;;7.93;;
34242;SDS011;20504;43.214;27.920;2023-04-06T12:12:42;10.90;;;9.07;;
34242;SDS011;20504;43.214;27.920;2023-04-06T12:15:08;13.67;;;8.70;;
34242;SDS011;20504;43.214;27.920;2023-04-06T12:17:34;11.75;;;9.35;;
34242;SDS011;20504;43.214;27.920;2023-04-06T12:19:59;13.80;;;9.30;;
34242;SDS011;20504;43.214;27.920;2023-04-06T12:22:25;13.40;;;9.90;;
34242;SDS011;20504;43.214;27.920;2023-04-06T12:24:50;12.37;;;9.43;;
34242;SDS011;20504;43.214;27.920;2023-04-06T12:27:16;16.13;;;10.00;;
34242;SDS011;20504;43.214;27.920;2023-04-06T12:29:41;19.47;;;9.83;;
34242;SDS011;20504;43.214;27.920;2023-04-06T12:32:07;12.23;;;9.73;;
34242;SDS011;20504;43.214;27.920;2023-04-06T12:34:33;13.98;;;9.40;;
34242;SDS011;20504;43.214;27.920;2023-04-06T12:36:59;15.37;;;10.00;;
34242;SDS011;20504;43.214;27.920;2023-04-06T12:39:25;13.00;;;9.33;;
34242;SDS011;20504;43.214;27.920;2023-04-06T12:41:52;12.32;;;9.35;;
34242;SDS011;20504;43.214;27.920;2023-04-06T12:44:19;13.70;;;9.00;;
34242;SDS011;20504;43.214;27.920;2023-04-06T12:46:44;17.50;;;9.95;;
34242;SDS011;20504;43.214;27.920;2023-04-06T12:49:10;14.13;;;10.13;;
34242;SDS011;20504;43.214;27.920;2023-04-06T12:51:36;15.33;;;9.80;;
34242;SDS011;20504;43.214;27.920;2023-04-06T12:54:01;12.87;;;8.77;;
34242;SDS011;20504;43.214;27.920;2023-04-06T12:56:27;11.65;;;9.10;;
34242;SDS011;20504;43.214;27.920;2023-04-06T12:58:53;13.13;;;9.70;;
34242;SDS011;20504;43.214;27.920;2023-04-06T13:01:19;13.10;;;9.23;;
34242;SDS011;20504;43.214;27.920;2023-04-06T13:03:45;12.77;;;9.48;;
34242;SDS011;20504;43.214;27.920;2023-04-06T13:06:10;12.67;;;9.00;;
34242;SDS011;20504;43.214;27.920;2023-04-06T13:08:37;11.80;;;9.17;;
34242;SDS011;20504;43.214;27.920;2023-04-06T13:11:03;13.45;;;9.52;;
34242;SDS011;20504;43.214;27.920;2023-04-06T13:13:30;12.13;;;8.98;;
34242;SDS011;20504;43.214;27.920;2023-04-06T13:16:03;16.87;;;9.47;;
34242;SDS011;20504;43.214;27.920;2023-04-06T13:18:30;14.93;;;9.80;;
34242;SDS011;20504;43.214;27.920;2023-04-06T13:20:58;12.90;;;9.90;;
34242;SDS011;20504;43.214;27.920;2023-04-06T13:23:24;12.80;;;9.45;;
34242;SDS011;20504;43.214;27.920;2023-04-06T13:26:00;31.53;;;15.10;;
34242;SDS011;20504;43.214;27.920;2023-04-06T13:28:42;17.10;;;11.27;;
34242;SDS011;20504;43.214;27.920;2023-04-06T13:31:08;12.43;;;9.03;;
34242;SDS011;20504;43.214;27.920;2023-04-06T13:33:34;20.05;;;10.43;;
34242;SDS011;20504;43.214;27.920;2023-04-06T13:36:00;14.40;;;10.90;;
34242;SDS011;20504;43.214;27.920;2023-04-06T13:38:25;16.50;;;9.93;;
34242;SDS011;20504;43.214;27.920;2023-04-06T13:40:51;16.73;;;10.50;;
34242;SDS011;20504;43.214;27.920;2023-04-06T13:43:17;12.67;;;9.87;;
34242;SDS011;20504;43.214;27.920;2023-04-06T13:45:52;14.05;;;10.88;;
34242;SDS011;20504;43.214;27.920;2023-04-06T13:48:20;12.18;;;10.00;;
34242;SDS011;20504;43.214;27.920;2023-04-06T13:50:45;12.73;;;9.87;;
34242;SDS011;20504;43.214;27.920;2023-04-06T13:53:11;13.07;;;10.90;;
34242;SDS011;20504;43.214;27.920;2023-04-06T13:55:37;15.40;;;11.50;;
34242;SDS011;20504;43.214;27.920;2023-04-06T13:58:03;20.37;;;12.30;;
34242;SDS011;20504;43.214;27.920;2023-04-06T14:00:28;14.93;;;11.27;;
34242;SDS011;20504;43.214;27.920;2023-04-06T14:02:54;18.43;;;13.47;;
34242;SDS011;20504;43.214;27.920;2023-04-06T14:05:20;20.02;;;13.35;;
34242;SDS011;20504;43.214;27.920;2023-04-06T14:07:46;15.85;;;11.70;;
34242;SDS011;20504;43.214;27.920;2023-04-06T14:10:11;18.03;;;13.40;;
34242;SDS011;20504;43.214;27.920;2023-04-06T14:12:42;20.90;;;14.85;;
34242;SDS011;20504;43.214;27.920;2023-04-06T14:15:11;17.10;;;13.18;;
34242;SDS011;20504;43.214;27.920;2023-04-06T14:17:37;15.17;;;12.87;;
34242;SDS011;20504;43.214;27.920;2023-04-06T14:20:04;15.50;;;12.10;;
34242;SDS011;20504;43.214;27.920;2023-04-06T14:22:31;16.83;;;13.82;;
34242;SDS011;20504;43.214;27.920;2023-04-06T14:24:56;19.83;;;13.27;;
34242;SDS011;20504;43.214;27.920;2023-04-06T14:27:22;16.83;;;12.63;;
34242;SDS011;20504;43.214;27.920;2023-04-06T14:29:48;18.92;;;13.38;;
34242;SDS011;20504;43.214;27.920;2023-04-06T14:32:14;17.30;;;13.03;;
34242;SDS011;20504;43.214;27.920;2023-04-06T14:34:40;15.93;;;12.67;;
34242;SDS011;20504;43.214;27.920;2023-04-06T14:37:05;11.30;;;9.57;;